Terminal Aerodrome Forecast
Issued by NWS

Home | Current Version | Previous Version | Text Only | Print | Product List | Glossary On
Versions: 1 2 3 4 5 6 7 8 9 10 11 12 13 14 15 16 17
000
FTUS43 KOAX 031121
TAFSNY
TAF
KSNY 031121Z 0312/0412 04007KT P6SM SKC
     FM031500 02012KT P6SM SCT004 BKN015
     FM032200 07014KT P6SM VCTS SCT015 BKN040CB
     FM040100 10015KT 5SM -SHRA VCTS SCT005 OVC015CB
     FM040300 10008KT 3SM -RA BR BKN005 OVC015=

USA.gov is the U.S. government's official web portal to all federal, state and local government web resources and services.